Time;durP1;ratioP1;P1;durP2;ratioP2;P2;SDS_P1;SDS_P2;PMS_P1;PMS_P2;Temp;Humidity;BMP_temperature;BMP_pressure;BME280_temperature;BME280_humidity;BME280_pressure;Samples;Min_cycle;Max_cycle;Signal;HPM_P1;HPM_P2
2022/09/29 00:00:16;;;;;;;;;;;20.30;46.80;;;;;;5067914;28;19931;-60
2022/09/29 00:02:42;;;;;;;;;;;20.30;46.80;;;;;;5069276;28;19927;-60
2022/09/29 00:05:09;;;;;;;;;;;20.30;46.80;;;;;;5066708;28;20011;-60
2022/09/29 00:07:36;;;;;;;;;;;20.30;46.80;;;;;;5068010;28;19931;-60
2022/09/29 00:10:03;;;;;;;;;;;20.30;47.40;;;;;;5068079;28;19920;-60
2022/09/29 00:12:30;;;;;;;;;;;20.30;46.80;;;;;;5069440;28;20388;-62
2022/09/29 00:14:58;;;;;;;;;;;20.30;46.80;;;;;;5068081;28;19924;-62
2022/09/29 00:17:24;;;;;;;;;;;20.30;46.80;;;;;;5081141;28;19928;-64
2022/09/29 00:19:51;;;;;;;;;;;20.30;46.80;;;;;;5068591;28;20297;-64
2022/09/29 00:22:18;;;;;;;;;;;20.30;46.80;;;;;;5067413;28;19986;-64
2022/09/29 00:24:46;;;;;;;;;;;20.30;46.80;;;;;;5084415;28;20019;-63
2022/09/29 00:27:14;;;;;;;;;;;20.30;46.80;;;;;;5084413;28;19971;-63
2022/09/29 00:29:40;;;;;;;;;;;20.30;46.80;;;;;;5083374;28;19931;-62
2022/09/29 00:32:08;;;;;;;;;;;20.30;46.80;;;;;;5084046;28;19921;-60
2022/09/29 00:34:35;;;;;;;;;;;20.30;46.80;;;;;;5081665;28;20019;-60
2022/09/29 00:37:02;;;;;;;;;;;20.30;47.40;;;;;;5067886;28;19963;-61
2022/09/29 00:39:28;;;;;;;;;;;20.30;46.80;;;;;;5066726;28;19920;-60
2022/09/29 00:41:56;;;;;;;;;;;20.40;46.90;;;;;;5083678;28;19927;-60
2022/09/29 00:44:41;;;;;;;;;;;20.30;46.80;;;;;;5083937;28;19920;-60
2022/09/29 00:47:10;;;;;;;;;;;20.30;46.80;;;;;;5083106;28;20320;-64
2022/09/29 00:49:38;;;;;;;;;;;20.40;46.90;;;;;;5068302;28;19967;-62
2022/09/29 00:52:05;;;;;;;;;;;20.40;46.90;;;;;;5064976;28;19920;-61
2022/09/29 00:54:32;;;;;;;;;;;20.30;46.80;;;;;;5083860;28;20388;-61
2022/09/29 00:56:59;;;;;;;;;;;20.30;46.80;;;;;;5083634;28;19932;-62
2022/09/29 00:59:27;;;;;;;;;;;20.30;46.80;;;;;;5083271;28;20443;-61
2022/09/29 01:01:54;;;;;;;;;;;20.30;46.80;;;;;;5084071;28;19920;-61
2022/09/29 01:04:22;;;;;;;;;;;20.30;46.80;;;;;;5083274;28;19924;-61
2022/09/29 01:06:50;;;;;;;;;;;20.40;46.90;;;;;;5083608;28;19921;-60
2022/09/29 01:09:17;;;;;;;;;;;20.40;46.90;;;;;;5083254;28;19924;-60
2022/09/29 01:11:44;;;;;;;;;;;20.40;46.90;;;;;;5082097;28;19993;-61
2022/09/29 01:14:11;;;;;;;;;;;20.40;46.90;;;;;;5083532;28;20003;-60
2022/09/29 01:16:40;;;;;;;;;;;20.40;46.90;;;;;;5068070;28;20018;-60
2022/09/29 01:19:07;;;;;;;;;;;20.40;46.90;;;;;;5080453;28;19982;-61
2022/09/29 01:21:36;;;;;;;;;;;20.30;46.80;;;;;;5069621;28;19934;-62
2022/09/29 01:24:21;;;;;;;;;;;20.40;47.00;;;;;;5087229;28;20384;-62
2022/09/29 01:27:01;;;;;;;;;;;20.40;46.90;;;;;;5072396;28;19931;-60
2022/09/29 01:29:49;;;;;;;;;;;20.40;46.90;;;;;;5085026;28;20023;-61
2022/09/29 01:32:19;;;;;;;;;;;20.40;46.90;;;;;;5086146;28;19928;-63
2022/09/29 01:34:47;;;;;;;;;;;20.40;47.50;;;;;;5069491;28;19947;-61
2022/09/29 01:37:15;;;;;;;;;;;20.40;46.90;;;;;;5069732;28;19920;-62
2022/09/29 01:39:41;;;;;;;;;;;20.40;46.90;;;;;;5087564;28;19931;-62
2022/09/29 01:42:09;;;;;;;;;;;20.40;46.90;;;;;;5069768;28;19920;-62
2022/09/29 01:44:37;;;;;;;;;;;20.30;46.80;;;;;;5087245;28;19960;-60
2022/09/29 01:47:05;;;;;;;;;;;20.40;47.00;;;;;;5087311;28;19960;-61
2022/09/29 01:49:34;;;;;;;;;;;20.40;46.90;;;;;;5086869;28;19943;-61
2022/09/29 01:52:01;;;;;;;;;;;20.40;46.90;;;;;;5085578;28;19959;-61
2022/09/29 01:54:29;;;;;;;;;;;20.40;47.00;;;;;;5087186;28;19966;-62
2022/09/29 01:56:56;;;;;;;;;;;20.40;47.00;;;;;;5085722;28;19925;-60
2022/09/29 01:59:24;;;;;;;;;;;20.40;47.00;;;;;;5087022;28;19955;-60
2022/09/29 02:01:51;;;;;;;;;;;20.30;46.90;;;;;;5086282;28;19939;-60
2022/09/29 02:04:18;;;;;;;;;;;20.30;46.80;;;;;;5086532;28;20232;-61
2022/09/29 02:06:48;;;;;;;;;;;20.40;47.00;;;;;;5069200;28;20021;-61
2022/09/29 02:09:15;;;;;;;;;;;20.40;47.00;;;;;;5070011;28;19935;-61
2022/09/29 02:11:41;;;;;;;;;;;20.40;47.00;;;;;;5070962;28;20007;-60
2022/09/29 02:14:11;;;;;;;;;;;20.40;47.00;;;;;;5071228;28;19951;-62
2022/09/29 02:16:38;;;;;;;;;;;20.40;47.00;;;;;;5087332;28;19920;-60
2022/09/29 02:19:06;;;;;;;;;;;20.40;47.00;;;;;;5067936;28;19952;-61
2022/09/29 02:21:33;;;;;;;;;;;20.40;47.00;;;;;;5071264;28;20019;-60
2022/09/29 02:24:02;;;;;;;;;;;20.40;46.90;;;;;;5086400;28;19925;-61
2022/09/29 02:26:30;;;;;;;;;;;20.40;47.00;;;;;;5086646;28;19930;-61
2022/09/29 02:28:56;;;;;;;;;;;20.30;46.90;;;;;;5086353;28;19924;-61
2022/09/29 02:31:23;;;;;;;;;;;20.40;47.00;;;;;;5069300;28;19964;-61
2022/09/29 02:33:50;;;;;;;;;;;20.40;46.90;;;;;;5085607;28;19952;-61
2022/09/29 02:36:18;;;;;;;;;;;20.40;47.00;;;;;;5084546;28;20001;-61
2022/09/29 02:38:48;;;;;;;;;;;20.40;47.00;;;;;;5086256;28;20023;-61
2022/09/29 02:41:19;;;;;;;;;;;20.40;46.90;;;;;;5084855;28;19967;-61
2022/09/29 02:43:51;;;;;;;;;;;20.40;47.00;;;;;;5083771;28;19920;-61
2022/09/29 02:46:21;;;;;;;;;;;20.40;46.90;;;;;;5068205;28;19952;-61
2022/09/29 02:49:04;;;;;;;;;;;20.40;47.00;;;;;;5068464;28;19921;-61
2022/09/29 02:51:31;;;;;;;;;;;20.40;47.00;;;;;;5076491;28;19929;-64
2022/09/29 02:54:11;;;;;;;;;;;20.40;47.00;;;;;;5086285;28;19924;-62
2022/09/29 02:56:40;;;;;;;;;;;20.40;47.00;;;;;;5085070;28;19932;-61
2022/09/29 02:59:08;;;;;;;;;;;20.40;47.00;;;;;;5080129;28;20011;-61
2022/09/29 03:01:34;;;;;;;;;;;20.40;47.00;;;;;;5084112;28;20031;-62
2022/09/29 03:04:01;;;;;;;;;;;20.40;47.00;;;;;;5070014;28;19964;-61
2022/09/29 03:06:28;;;;;;;;;;;20.40;47.00;;;;;;5085805;28;19920;-62
2022/09/29 03:08:55;;;;;;;;;;;20.40;47.00;;;;;;5085450;28;19920;-61
2022/09/29 03:11:22;;;;;;;;;;;20.40;47.00;;;;;;5084580;28;20304;-60
2022/09/29 03:13:50;;;;;;;;;;;20.40;46.90;;;;;;5066647;28;19970;-61
2022/09/29 03:16:17;;;;;;;;;;;20.40;47.00;;;;;;5085376;28;19920;-61
2022/09/29 03:18:43;;;;;;;;;;;20.40;47.00;;;;;;5068173;28;20596;-62
2022/09/29 03:21:10;;;;;;;;;;;20.40;47.00;;;;;;5085131;28;20366;-63
2022/09/29 03:23:37;;;;;;;;;;;20.40;47.00;;;;;;5086166;28;19920;-62
2022/09/29 03:26:04;;;;;;;;;;;20.40;47.00;;;;;;5084270;28;20371;-61
2022/09/29 03:28:30;;;;;;;;;;;20.40;47.00;;;;;;5085197;28;19970;-61
2022/09/29 03:31:05;;;;;;;;;;;20.40;47.00;;;;;;5085307;28;19960;-61
2022/09/29 03:33:32;;;;;;;;;;;20.40;47.00;;;;;;5082646;28;19924;-61
2022/09/29 03:35:59;;;;;;;;;;;20.40;47.00;;;;;;5069834;28;20032;-61
2022/09/29 03:38:25;;;;;;;;;;;20.40;47.00;;;;;;5085822;28;19977;-62
2022/09/29 03:40:52;;;;;;;;;;;20.40;47.00;;;;;;5084843;28;19920;-61
2022/09/29 03:43:19;;;;;;;;;;;20.40;47.00;;;;;;5068710;28;19920;-61
2022/09/29 03:45:49;;;;;;;;;;;20.40;46.90;;;;;;5067748;28;19928;-63
2022/09/29 03:48:17;;;;;;;;;;;20.40;46.90;;;;;;5085246;28;19927;-63
2022/09/29 03:50:44;;;;;;;;;;;20.40;46.90;;;;;;5069314;28;20290;-63
2022/09/29 03:53:11;;;;;;;;;;;20.40;47.00;;;;;;5070184;28;19943;-62
2022/09/29 03:55:37;;;;;;;;;;;20.40;46.90;;;;;;5084828;28;20196;-62
2022/09/29 03:58:04;;;;;;;;;;;20.30;46.90;;;;;;5069424;28;19920;-63
2022/09/29 04:00:30;;;;;;;;;;;20.40;46.90;;;;;;5084484;28;20027;-62
2022/09/29 04:02:58;;;;;;;;;;;20.40;46.90;;;;;;5076430;28;19948;-62
2022/09/29 04:05:27;;;;;;;;;;;20.40;47.00;;;;;;5067031;28;19960;-63
2022/09/29 04:07:54;;;;;;;;;;;20.40;46.90;;;;;;5083077;28;19930;-64
2022/09/29 04:10:21;;;;;;;;;;;20.40;46.90;;;;;;5083347;28;20027;-62
2022/09/29 04:12:47;;;;;;;;;;;20.40;46.90;;;;;;5082886;28;19920;-62
2022/09/29 04:15:14;;;;;;;;;;;20.40;46.90;;;;;;5067226;28;19928;-62
2022/09/29 04:17:41;;;;;;;;;;;20.40;46.90;;;;;;5083672;28;20336;-62
2022/09/29 04:20:08;;;;;;;;;;;20.40;46.90;;;;;;5083111;28;19920;-61
2022/09/29 04:22:36;;;;;;;;;;;20.40;46.90;;;;;;5067865;28;19925;-62
2022/09/29 04:25:03;;;;;;;;;;;20.40;46.90;;;;;;5084530;28;20354;-62
2022/09/29 04:27:30;;;;;;;;;;;20.40;46.90;;;;;;5083860;28;19920;-62
2022/09/29 04:29:59;;;;;;;;;;;20.40;46.90;;;;;;5084694;28;19960;-62
2022/09/29 04:32:26;;;;;;;;;;;20.40;47.10;;;;;;5068636;28;19932;-62
2022/09/29 04:34:52;;;;;;;;;;;20.40;46.90;;;;;;5083849;28;20417;-62
2022/09/29 04:37:19;;;;;;;;;;;20.40;46.90;;;;;;5083411;28;20015;-62
2022/09/29 04:39:47;;;;;;;;;;;20.40;46.90;;;;;;5068110;28;19962;-61
2022/09/29 04:42:14;;;;;;;;;;;20.40;46.90;;;;;;5066677;28;20186;-61
2022/09/29 04:44:40;;;;;;;;;;;20.40;46.90;;;;;;5068440;28;19979;-63
2022/09/29 04:47:07;;;;;;;;;;;20.40;46.90;;;;;;5083901;28;19928;-62
2022/09/29 04:49:34;;;;;;;;;;;20.40;46.90;;;;;;5067886;28;19921;-62
2022/09/29 04:52:01;;;;;;;;;;;20.40;47.00;;;;;;5067343;28;19950;-62
2022/09/29 04:54:29;;;;;;;;;;;20.40;46.90;;;;;;5065748;28;19998;-61
2022/09/29 04:56:58;;;;;;;;;;;20.40;47.00;;;;;;5066003;28;19950;-62
2022/09/29 04:59:25;;;;;;;;;;;20.40;46.90;;;;;;5083768;28;19927;-63
2022/09/29 05:01:51;;;;;;;;;;;20.40;46.90;;;;;;5065686;28;19925;-62
2022/09/29 05:04:18;;;;;;;;;;;20.40;46.90;;;;;;5083069;28;19928;-62
2022/09/29 05:06:47;;;;;;;;;;;20.40;46.90;;;;;;5080405;28;20968;-63
2022/09/29 05:09:14;;;;;;;;;;;20.40;46.90;;;;;;5067719;28;19963;-63
2022/09/29 05:11:40;;;;;;;;;;;20.40;46.90;;;;;;5082239;28;19920;-62
2022/09/29 05:14:08;;;;;;;;;;;20.40;46.90;;;;;;5081049;28;19920;-62
2022/09/29 05:16:35;;;;;;;;;;;20.40;46.90;;;;;;5083026;28;20421;-62
2022/09/29 05:19:02;;;;;;;;;;;20.40;46.90;;;;;;5083621;28;19960;-62
2022/09/29 05:21:28;;;;;;;;;;;20.40;46.90;;;;;;5083195;28;19940;-63
2022/09/29 05:23:55;;;;;;;;;;;20.40;46.90;;;;;;5083495;28;19990;-62
2022/09/29 05:26:22;;;;;;;;;;;20.40;47.10;;;;;;5068305;28;19950;-62
2022/09/29 05:28:49;;;;;;;;;;;20.40;47.00;;;;;;5083078;28;19920;-62
2022/09/29 05:31:17;;;;;;;;;;;20.40;47.00;;;;;;5082858;28;19979;-62
2022/09/29 05:33:43;;;;;;;;;;;20.40;47.00;;;;;;5082372;28;19960;-63
2022/09/29 05:36:11;;;;;;;;;;;20.40;47.00;;;;;;5083369;28;20027;-62
2022/09/29 05:38:38;;;;;;;;;;;20.40;46.90;;;;;;5067866;28;19921;-60
2022/09/29 05:41:04;;;;;;;;;;;20.40;47.00;;;;;;5067911;28;19984;-60
2022/09/29 05:43:31;;;;;;;;;;;20.40;47.00;;;;;;5081702;28;19928;-61
2022/09/29 05:45:59;;;;;;;;;;;20.40;47.00;;;;;;5083390;28;19920;-61
2022/09/29 05:48:29;;;;;;;;;;;20.40;47.00;;;;;;5082471;28;20280;-61
2022/09/29 05:50:56;;;;;;;;;;;20.40;47.00;;;;;;5083796;28;19948;-62
2022/09/29 05:53:22;;;;;;;;;;;20.40;47.00;;;;;;5083095;28;20028;-61
2022/09/29 05:55:50;;;;;;;;;;;20.40;47.60;;;;;;5084835;28;19920;-61
2022/09/29 05:58:16;;;;;;;;;;;20.40;47.00;;;;;;5067626;28;19924;-61
2022/09/29 06:00:43;;;;;;;;;;;20.40;47.00;;;;;;5068224;28;20069;-60
2022/09/29 06:03:10;;;;;;;;;;;20.40;47.00;;;;;;5067540;28;19963;-60
2022/09/29 06:05:39;;;;;;;;;;;20.40;46.90;;;;;;5066390;28;19998;-61
2022/09/29 06:08:06;;;;;;;;;;;20.40;47.00;;;;;;5083670;28;19935;-61
2022/09/29 06:10:33;;;;;;;;;;;20.40;47.00;;;;;;5086191;28;19974;-61
2022/09/29 06:13:00;;;;;;;;;;;20.40;47.00;;;;;;5086960;28;19960;-61
2022/09/29 06:15:26;;;;;;;;;;;20.40;46.90;;;;;;5086871;28;19932;-61
2022/09/29 06:17:56;;;;;;;;;;;20.40;46.90;;;;;;5070761;28;19952;-62
2022/09/29 06:20:23;;;;;;;;;;;20.40;46.90;;;;;;5071079;28;19925;-61
2022/09/29 06:22:52;;;;;;;;;;;20.40;46.90;;;;;;5087089;28;19966;-61
2022/09/29 06:25:18;;;;;;;;;;;20.40;46.90;;;;;;5086676;28;19967;-61
2022/09/29 06:27:45;;;;;;;;;;;20.40;46.90;;;;;;5086548;28;20339;-61
2022/09/29 06:30:12;;;;;;;;;;;20.40;46.90;;;;;;5086592;28;19971;-61
2022/09/29 06:32:39;;;;;;;;;;;20.40;46.90;;;;;;5083289;28;20015;-61
2022/09/29 06:37:52;;;;;;;;;;;20.40;46.90;;;;;;5069670;28;20025;-61
2022/09/29 06:40:24;;;;;;;;;;;20.40;46.90;;;;;;5068139;28;20386;-62
2022/09/29 06:42:50;;;;;;;;;;;20.40;46.90;;;;;;5081430;28;19921;-61
2022/09/29 06:45:18;;;;;;;;;;;20.40;46.90;;;;;;5081262;28;19940;-61
2022/09/29 06:47:45;;;;;;;;;;;20.40;47.50;;;;;;5084497;28;20309;-61
2022/09/29 06:50:11;;;;;;;;;;;20.40;46.90;;;;;;5081409;28;20006;-61
2022/09/29 06:52:38;;;;;;;;;;;20.40;46.90;;;;;;5068299;28;19931;-62
2022/09/29 06:55:05;;;;;;;;;;;20.40;46.90;;;;;;5077058;28;20385;-62
2022/09/29 06:57:33;;;;;;;;;;;20.40;46.90;;;;;;5062863;28;19927;-60
2022/09/29 07:00:00;;;;;;;;;;;20.40;46.90;;;;;;5084200;28;20023;-62
2022/09/29 07:02:27;;;;;;;;;;;20.40;46.90;;;;;;5068669;28;19932;-61
2022/09/29 07:04:54;;;;;;;;;;;20.40;46.90;;;;;;5060839;28;19925;-62
2022/09/29 07:07:21;;;;;;;;;;;20.40;46.90;;;;;;5081822;28;19978;-61
2022/09/29 07:09:48;;;;;;;;;;;20.40;46.90;;;;;;5078899;28;19939;-61
2022/09/29 07:12:14;;;;;;;;;;;20.40;46.90;;;;;;5068314;28;20047;-61
2022/09/29 07:14:42;;;;;;;;;;;20.40;46.90;;;;;;5069280;28;19924;-61
2022/09/29 07:17:09;;;;;;;;;;;20.40;46.90;;;;;;5085208;28;19925;-61
2022/09/29 07:19:35;;;;;;;;;;;20.40;46.90;;;;;;5084287;28;19924;-61
2022/09/29 07:22:03;;;;;;;;;;;20.40;46.90;;;;;;5066933;28;20007;-61
2022/09/29 07:24:30;;;;;;;;;;;20.40;46.90;;;;;;5085879;28;20329;-61
2022/09/29 07:26:56;;;;;;;;;;;20.40;46.90;;;;;;5069445;28;20292;-61
2022/09/29 07:29:23;;;;;;;;;;;20.40;46.90;;;;;;5081868;28;19974;-61
2022/09/29 07:31:54;;;;;;;;;;;20.40;46.90;;;;;;5086103;28;20015;-61
2022/09/29 07:34:20;;;;;;;;;;;20.40;46.90;;;;;;5084637;28;19920;-61
2022/09/29 07:36:47;;;;;;;;;;;20.40;46.90;;;;;;5084878;28;19950;-61
2022/09/29 07:39:14;;;;;;;;;;;20.40;46.90;;;;;;5083342;28;20007;-61
2022/09/29 07:41:40;;;;;;;;;;;20.40;46.90;;;;;;5068998;28;20023;-61
2022/09/29 07:44:07;;;;;;;;;;;20.40;46.90;;;;;;5084794;28;19976;-61
2022/09/29 07:46:34;;;;;;;;;;;20.40;46.90;;;;;;5067886;28;19979;-61
2022/09/29 07:49:02;;;;;;;;;;;20.40;46.90;;;;;;5083817;28;20005;-61
2022/09/29 07:51:28;;;;;;;;;;;20.50;47.00;;;;;;5084902;28;20018;-60
2022/09/29 07:53:55;;;;;;;;;;;20.40;46.90;;;;;;5069742;28;20337;-61
2022/09/29 07:56:22;;;;;;;;;;;20.40;46.90;;;;;;5069476;28;19960;-61
2022/09/29 07:58:49;;;;;;;;;;;20.40;46.90;;;;;;5080050;28;19966;-61
2022/09/29 08:01:16;;;;;;;;;;;20.50;47.00;;;;;;5066488;28;19920;-62
2022/09/29 08:03:45;;;;;;;;;;;20.50;47.00;;;;;;5083374;28;19924;-61
2022/09/29 08:06:13;;;;;;;;;;;20.50;47.00;;;;;;5069540;28;19927;-61
2022/09/29 08:08:40;;;;;;;;;;;20.50;47.00;;;;;;5067849;28;19967;-61
2022/09/29 08:11:07;;;;;;;;;;;20.40;46.90;;;;;;5084214;28;19932;-60
2022/09/29 08:13:35;;;;;;;;;;;20.50;47.00;;;;;;5083813;28;19924;-61
2022/09/29 08:16:02;;;;;;;;;;;20.50;47.00;;;;;;5077579;28;19931;-61
2022/09/29 08:18:29;;;;;;;;;;;20.50;47.00;;;;;;5083944;28;20387;-61
2022/09/29 08:20:55;;;;;;;;;;;20.40;47.50;;;;;;5066740;28;19927;-61
2022/09/29 08:23:24;;;;;;;;;;;20.50;47.00;;;;;;5067354;28;19928;-61
2022/09/29 08:25:51;;;;;;;;;;;20.50;47.00;;;;;;5070497;28;19924;-61
2022/09/29 08:28:17;;;;;;;;;;;20.50;47.00;;;;;;5083164;28;20031;-61
2022/09/29 08:30:44;;;;;;;;;;;20.50;47.00;;;;;;5083218;28;19967;-62
2022/09/29 08:33:13;;;;;;;;;;;20.50;47.00;;;;;;5060725;28;20075;-61
2022/09/29 08:35:40;;;;;;;;;;;20.50;47.00;;;;;;5083531;28;19991;-61
2022/09/29 08:38:07;;;;;;;;;;;20.50;47.00;;;;;;5079086;28;20013;-61
2022/09/29 08:40:35;;;;;;;;;;;20.50;47.00;;;;;;5079082;28;19920;-61
2022/09/29 08:43:04;;;;;;;;;;;20.40;47.00;;;;;;5066902;28;19921;-61
2022/09/29 08:45:31;;;;;;;;;;;20.50;47.00;;;;;;5060816;28;19963;-61
2022/09/29 08:48:01;;;;;;;;;;;20.50;47.00;;;;;;5071234;28;19970;-61
2022/09/29 08:50:30;;;;;;;;;;;20.50;47.00;;;;;;5066387;28;19927;-61
2022/09/29 08:52:58;;;;;;;;;;;20.50;47.00;;;;;;5082321;28;19928;-61
2022/09/29 08:55:26;;;;;;;;;;;20.50;47.00;;;;;;5068261;28;19974;-61
2022/09/29 08:57:55;;;;;;;;;;;20.50;47.00;;;;;;5084263;28;19928;-61
2022/09/29 09:00:21;;;;;;;;;;;20.50;47.10;;;;;;5090277;28;19920;-61
2022/09/29 09:02:56;;;;;;;;;;;20.40;47.00;;;;;;5069216;28;20006;-61
2022/09/29 09:05:25;;;;;;;;;;;20.40;47.00;;;;;;5083211;28;19968;-61
2022/09/29 09:07:53;;;;;;;;;;;20.50;47.00;;;;;;5063835;28;19921;-62
2022/09/29 09:10:23;;;;;;;;;;;20.50;47.10;;;;;;5067075;28;19920;-61
2022/09/29 09:12:53;;;;;;;;;;;20.50;47.00;;;;;;5081963;28;19932;-61
2022/09/29 09:15:34;;;;;;;;;;;20.50;47.00;;;;;;5067854;28;20327;-61
2022/09/29 09:18:11;;;;;;;;;;;20.50;47.00;;;;;;5078773;28;19932;-62
2022/09/29 09:20:40;;;;;;;;;;;20.50;47.10;;;;;;5077597;28;20385;-61
2022/09/29 09:23:08;;;;;;;;;;;20.50;47.00;;;;;;5082259;28;20312;-61
2022/09/29 09:25:35;;;;;;;;;;;20.50;47.10;;;;;;5058955;28;19920;-62
2022/09/29 09:28:06;;;;;;;;;;;20.50;47.10;;;;;;5079684;28;20011;-61
2022/09/29 09:30:38;;;;;;;;;;;20.50;47.00;;;;;;5084182;28;19921;-61
2022/09/29 09:33:06;;;;;;;;;;;20.50;47.10;;;;;;5063254;28;19998;-61
2022/09/29 09:35:35;;;;;;;;;;;20.50;47.00;;;;;;5082617;28;19921;-62
2022/09/29 09:38:02;;;;;;;;;;;20.50;47.10;;;;;;5066594;28;20011;-62
2022/09/29 09:40:30;;;;;;;;;;;20.50;47.10;;;;;;5068279;28;19927;-62
2022/09/29 09:42:58;;;;;;;;;;;20.50;47.10;;;;;;5084866;28;19920;-61
2022/09/29 09:45:28;;;;;;;;;;;20.50;47.10;;;;;;5087219;28;19963;-62
2022/09/29 09:47:55;;;;;;;;;;;20.50;47.00;;;;;;5087130;28;20261;-62
2022/09/29 09:50:24;;;;;;;;;;;20.50;47.00;;;;;;5072059;28;19921;-62
2022/09/29 09:52:53;;;;;;;;;;;20.50;47.10;;;;;;5086655;28;20000;-62
2022/09/29 09:55:20;;;;;;;;;;;20.60;47.20;;;;;;5084159;28;19924;-61
2022/09/29 09:57:51;;;;;;;;;;;20.50;47.10;;;;;;5070524;28;19924;-61
2022/09/29 10:00:18;;;;;;;;;;;20.60;47.20;;;;;;5083251;28;19924;-62
2022/09/29 10:02:45;;;;;;;;;;;20.60;47.20;;;;;;5087471;28;20142;-61
2022/09/29 10:05:12;;;;;;;;;;;20.60;47.20;;;;;;5067731;28;20018;-61
2022/09/29 10:07:39;;;;;;;;;;;20.50;47.10;;;;;;5071829;28;19987;-61
2022/09/29 10:10:12;;;;;;;;;;;20.50;47.10;;;;;;5064535;28;19966;-61
2022/09/29 10:12:39;;;;;;;;;;;20.60;47.20;;;;;;5086081;28;19920;-61
2022/09/29 10:15:12;;;;;;;;;;;20.60;47.20;;;;;;5081531;28;20024;-62
2022/09/29 10:17:39;;;;;;;;;;;20.60;47.20;;;;;;5070419;28;19955;-61
2022/09/29 10:20:06;;;;;;;;;;;20.50;47.10;;;;;;5086097;28;20024;-61
2022/09/29 10:22:33;;;;;;;;;;;20.60;47.20;;;;;;5069847;28;19989;-61
2022/09/29 10:25:07;;;;;;;;;;;20.60;47.20;;;;;;5069887;28;19967;-61
2022/09/29 10:27:34;;;;;;;;;;;20.60;47.20;;;;;;5086615;28;20006;-61
2022/09/29 10:30:01;;;;;;;;;;;20.60;47.20;;;;;;5070477;28;19921;-61
2022/09/29 10:32:35;;;;;;;;;;;20.60;47.20;;;;;;5069247;28;19920;-62
2022/09/29 10:35:04;;;;;;;;;;;20.60;47.20;;;;;;5082104;28;20327;-61
2022/09/29 10:37:32;;;;;;;;;;;20.50;47.10;;;;;;5084111;28;19921;-61
2022/09/29 10:40:02;;;;;;;;;;;20.60;47.20;;;;;;5081146;28;19920;-62
2022/09/29 10:42:32;;;;;;;;;;;20.50;47.10;;;;;;5070117;28;19932;-61
2022/09/29 10:45:01;;;;;;;;;;;20.50;47.10;;;;;;5086685;28;20338;-62
2022/09/29 10:47:27;;;;;;;;;;;20.60;47.20;;;;;;5068688;28;19929;-61
2022/09/29 10:50:07;;;;;;;;;;;20.60;47.20;;;;;;5086784;28;19921;-61
2022/09/29 10:52:34;;;;;;;;;;;20.60;47.20;;;;;;5066078;28;19932;-61
2022/09/29 10:55:02;;;;;;;;;;;20.60;47.20;;;;;;5068857;28;19920;-62
2022/09/29 10:57:32;;;;;;;;;;;20.60;47.20;;;;;;5084285;28;19920;-61
2022/09/29 10:59:59;;;;;;;;;;;20.60;47.20;;;;;;5085445;28;19931;-62
2022/09/29 11:02:27;;;;;;;;;;;20.60;47.80;;;;;;5067460;28;19959;-62
2022/09/29 11:04:53;;;;;;;;;;;20.60;47.30;;;;;;5067584;28;19969;-62
2022/09/29 11:07:20;;;;;;;;;;;20.60;47.30;;;;;;5084055;28;20015;-62
2022/09/29 11:09:47;;;;;;;;;;;20.60;47.30;;;;;;5068266;28;20023;-62
2022/09/29 11:12:27;;;;;;;;;;;20.60;47.30;;;;;;5084751;28;20482;-62
2022/09/29 11:14:55;;;;;;;;;;;20.60;47.30;;;;;;5081515;28;19964;-62
2022/09/29 11:17:22;;;;;;;;;;;20.60;47.30;;;;;;5080015;28;19970;-62
2022/09/29 11:19:49;;;;;;;;;;;20.60;47.30;;;;;;5067251;28;19925;-61
2022/09/29 11:22:34;;;;;;;;;;;20.60;47.30;;;;;;5070116;28;20362;-62
2022/09/29 11:25:16;;;;;;;;;;;20.60;47.30;;;;;;5061526;28;19950;-62
2022/09/29 11:27:46;;;;;;;;;;;20.60;47.30;;;;;;5066885;28;20315;-62
2022/09/29 11:30:16;;;;;;;;;;;20.60;47.30;;;;;;5083736;28;19920;-62
2022/09/29 11:32:53;;;;;;;;;;;20.60;47.30;;;;;;5084370;28;19966;-61
2022/09/29 11:35:25;;;;;;;;;;;20.60;47.30;;;;;;5065494;28;19966;-62
2022/09/29 11:37:58;;;;;;;;;;;20.60;47.30;;;;;;5084014;28;20008;-62
2022/09/29 11:40:27;;;;;;;;;;;20.60;47.30;;;;;;5070809;28;19960;-62
2022/09/29 11:43:00;;;;;;;;;;;20.60;47.30;;;;;;5071112;28;19928;-62
2022/09/29 11:45:30;;;;;;;;;;;20.60;47.40;;;;;;5068699;28;19931;-63
2022/09/29 11:48:07;;;;;;;;;;;20.60;47.40;;;;;;5084786;28;20464;-62
2022/09/29 11:50:36;;;;;;;;;;;20.60;47.50;;;;;;5078803;28;19921;-62
2022/09/29 11:53:13;;;;;;;;;;;20.60;47.50;;;;;;5083324;28;19989;-63
2022/09/29 11:55:44;;;;;;;;;;;20.60;47.60;;;;;;5056991;28;19925;-62
2022/09/29 11:58:18;;;;;;;;;;;20.60;47.70;;;;;;5082632;28;19932;-62
2022/09/29 12:00:57;;;;;;;;;;;20.70;47.70;;;;;;5056803;28;19921;-62
2022/09/29 12:03:27;;;;;;;;;;;20.70;47.80;;;;;;5064932;28;20357;-61
2022/09/29 12:05:58;;;;;;;;;;;20.60;47.80;;;;;;5082462;28;20007;-61
2022/09/29 12:08:28;;;;;;;;;;;20.60;47.90;;;;;;5078577;28;19925;-61
2022/09/29 12:10:56;;;;;;;;;;;20.70;48.00;;;;;;5078659;28;19920;-61
2022/09/29 12:13:25;;;;;;;;;;;20.60;48.00;;;;;;5082814;28;20027;-60
2022/09/29 12:15:52;;;;;;;;;;;20.70;48.20;;;;;;5077456;28;20332;-60
2022/09/29 12:18:21;;;;;;;;;;;20.70;48.30;;;;;;5080488;28;19943;-61
2022/09/29 12:20:48;;;;;;;;;;;20.70;48.30;;;;;;5080698;28;19994;-61
2022/09/29 12:23:16;;;;;;;;;;;20.70;48.40;;;;;;5067477;28;19927;-61
2022/09/29 12:25:45;;;;;;;;;;;20.70;48.50;;;;;;5082792;28;19928;-62
2022/09/29 12:28:12;;;;;;;;;;;20.80;48.70;;;;;;5079405;28;19993;-61
2022/09/29 12:30:41;;;;;;;;;;;20.70;48.80;;;;;;5076641;28;19977;-61
2022/09/29 12:33:11;;;;;;;;;;;20.70;48.80;;;;;;5072040;28;19921;-61
2022/09/29 12:35:42;;;;;;;;;;;20.70;48.90;;;;;;5079486;28;19920;-61
2022/09/29 12:38:14;;;;;;;;;;;20.80;49.00;;;;;;5081272;28;19974;-62
2022/09/29 12:40:41;;;;;;;;;;;20.80;49.00;;;;;;5078847;28;19921;-61
2022/09/29 12:43:10;;;;;;;;;;;20.80;49.10;;;;;;5057755;28;19935;-61
2022/09/29 12:45:38;;;;;;;;;;;20.80;49.10;;;;;;5080449;28;19920;-61
2022/09/29 12:48:14;;;;;;;;;;;20.80;49.10;;;;;;5065485;28;19920;-61
2022/09/29 12:50:42;;;;;;;;;;;20.80;49.10;;;;;;5063191;28;20065;-61
2022/09/29 12:53:10;;;;;;;;;;;20.80;49.70;;;;;;5083312;28;20296;-61
2022/09/29 12:55:43;;;;;;;;;;;20.80;49.10;;;;;;5079778;28;19920;-62
2022/09/29 12:58:11;;;;;;;;;;;20.90;49.30;;;;;;5078388;28;19924;-62
2022/09/29 13:00:38;;;;;;;;;;;20.90;49.30;;;;;;5076405;28;19921;-62
2022/09/29 13:03:31;;;;;;;;;;;20.90;49.30;;;;;;5079701;28;19963;-61
2022/09/29 13:06:13;;;;;;;;;;;20.90;49.30;;;;;;5054540;28;20079;-61
2022/09/29 13:08:56;;;;;;;;;;;20.90;49.30;;;;;;5046362;28;19989;-62
2022/09/29 13:11:36;;;;;;;;;;;20.80;49.20;;;;;;5061830;28;20009;-62
2022/09/29 13:14:10;;;;;;;;;;;20.90;49.30;;;;;;5080685;28;19935;-62
2022/09/29 13:16:44;;;;;;;;;;;20.90;49.30;;;;;;5064967;28;19932;-62
2022/09/29 13:19:19;;;;;;;;;;;20.90;49.30;;;;;;5079604;28;19952;-62
2022/09/29 13:21:49;;;;;;;;;;;20.90;49.30;;;;;;5067462;28;19928;-62
2022/09/29 13:24:21;;;;;;;;;;;20.90;49.30;;;;;;5059078;28;20019;-62
2022/09/29 13:26:55;;;;;;;;;;;20.90;49.30;;;;;;5061884;28;20388;-61
2022/09/29 13:29:22;;;;;;;;;;;20.90;49.30;;;;;;5076533;28;19924;-62
2022/09/29 13:31:49;;;;;;;;;;;20.90;49.40;;;;;;5065001;28;19920;-63
2022/09/29 13:34:20;;;;;;;;;;;20.90;49.40;;;;;;5060339;28;20259;-64
2022/09/29 13:36:48;;;;;;;;;;;20.90;49.40;;;;;;5061424;28;19925;-63
2022/09/29 13:39:20;;;;;;;;;;;20.90;49.40;;;;;;5061942;28;19947;-61
2022/09/29 13:41:47;;;;;;;;;;;20.90;49.50;;;;;;5077158;28;19921;-61
2022/09/29 13:44:31;;;;;;;;;;;20.90;49.50;;;;;;5077206;28;19948;-61
2022/09/29 13:47:07;;;;;;;;;;;20.90;49.40;;;;;;5056401;28;19968;-61
2022/09/29 13:49:34;;;;;;;;;;;21.00;49.50;;;;;;5060772;28;19986;-62
2022/09/29 13:52:02;;;;;;;;;;;21.00;49.60;;;;;;5063410;28;20015;-62
2022/09/29 13:54:46;;;;;;;;;;;20.90;49.40;;;;;;5074979;28;19932;-62
2022/09/29 13:57:23;;;;;;;;;;;21.00;49.60;;;;;;5073442;28;19924;-62
2022/09/29 14:00:04;;;;;;;;;;;20.90;49.50;;;;;;5064933;28;19936;-61
2022/09/29 14:02:32;;;;;;;;;;;21.00;49.50;;;;;;5075186;28;20053;-62
2022/09/29 14:04:59;;;;;;;;;;;21.00;50.10;;;;;;5075393;28;20284;-62
2022/09/29 14:07:36;;;;;;;;;;;20.90;49.40;;;;;;5076423;28;19975;-62
2022/09/29 14:10:06;;;;;;;;;;;21.00;49.50;;;;;;5081157;28;19924;-62
2022/09/29 14:12:32;;;;;;;;;;;20.90;49.40;;;;;;5081479;28;19966;-62
2022/09/29 14:14:59;;;;;;;;;;;21.00;49.60;;;;;;5078630;28;19956;-62
2022/09/29 14:17:26;;;;;;;;;;;21.00;49.60;;;;;;5077786;28;19928;-62
2022/09/29 14:19:54;;;;;;;;;;;21.00;49.60;;;;;;5078481;28;19920;-62
2022/09/29 14:22:40;;;;;;;;;;;20.90;49.50;;;;;;5083260;28;19951;-62
2022/09/29 14:25:25;;;;;;;;;;;20.90;49.50;;;;;;5076554;28;19974;-62
2022/09/29 14:28:00;;;;;;;;;;;21.00;49.60;;;;;;5063107;28;19968;-62